CYAM

Sault Ste. Marie International Airport

Airport
ICAO code
CYAM
IATA Code
YAM
Summary
ICAO Region
NAM
ICAO Territory
Location

Sault Ste. Marie, Ontario,

Serving
Sault Ste. Marie
Elevation
630 ft
Coordinates
46° 29' 6" N , 84° 30' 34" W
KCC
Airport BS
Bird Strike
Airport CFIT
Altimeter Temperature Error Correction
Airport GND
Aircraft Ground De/Anti Icing
Metar
Observation
CYAM 032000Z 08005KT 070V170 25SM FEW028 SCT260 19/10 A3029 RMK CU1CI4 CU TR SLP266 DENSITY ALT 800FT
Station
Sault Ste Marie, Ont.
Date/Time
2022-10-03 20:00:00
Wind direction
80°
Wind speed
05 kts
Lowest cloud amount
few clouds
Temperature
19°C
Dew point
10°C
Humidity
55%
Weather condition
n/a

Description

Regional airport located 8 miles west of Sault Ste. Marie, Ontario, Canada.

Climatology

Humid Continental climate (Köppen climate classification Dfb) - Variable weather patterns and a large seasonal temperature variance. Summers are often warm and humid with frequent thunderstorms and winters can be very cold with frequent snowfall and persistent snow cover.

Runways

Designator Length Width Surface Rops
4/22 1829 61 ASP Yes/Yes
12/30 1829 61 ASP Yes/Yes

SKYbrary Partners:

Safety knowledge contributed by: